Time;durP1;ratioP1;P1;durP2;ratioP2;P2;SDS_P1;SDS_P2;PMS_P1;PMS_P2;Temp;Humidity;BMP_temperature;BMP_pressure;BME280_temperature;BME280_humidity;BME280_pressure;Samples;Min_cycle;Max_cycle;Signal;HPM_P1;HPM_P2
2021/01/21 00:01:09;;;;;;;9.68;5.60;;;4.10;63.10;;;;;;5034124;28;20044;-70
2021/01/21 00:03:34;;;;;;;11.75;6.35;;;4.10;63.10;;;;;;5033413;28;20033;-72
2021/01/21 00:06:01;;;;;;;12.27;6.95;;;4.00;63.10;;;;;;5034006;28;20533;-70
2021/01/21 00:08:27;;;;;;;25.52;8.25;;;4.00;63.00;;;;;;5024589;28;20026;-71
2021/01/21 00:10:53;;;;;;;13.93;8.18;;;3.90;62.90;;;;;;5015599;28;20034;-71
2021/01/21 00:13:19;;;;;;;21.27;7.30;;;3.90;63.20;;;;;;5048025;28;20028;-71
2021/01/21 00:15:44;;;;;;;13.55;6.97;;;3.80;63.20;;;;;;5033197;28;20025;-71
2021/01/21 00:18:10;;;;;;;19.90;7.40;;;3.80;63.30;;;;;;5033322;28;20481;-71
2021/01/21 00:20:36;;;;;;;11.95;6.53;;;3.70;63.30;;;;;;5047913;28;20128;-71
2021/01/21 00:23:02;;;;;;;22.80;8.25;;;3.60;63.30;;;;;;5042229;28;20048;-71
2021/01/21 00:25:28;;;;;;;17.13;7.88;;;3.60;63.40;;;;;;5052979;28;20109;-70
2021/01/21 00:27:53;;;;;;;22.85;8.38;;;3.50;63.50;;;;;;5053223;28;20060;-71
2021/01/21 00:30:23;;;;;;;18.48;7.85;;;3.50;63.60;;;;;;5053070;28;20017;-71
2021/01/21 00:32:56;;;;;;;17.20;8.73;;;3.50;63.80;;;;;;5051531;28;20120;-71
2021/01/21 00:35:26;;;;;;;13.82;7.93;;;3.40;63.80;;;;;;5053215;28;20060;-71
2021/01/21 00:37:52;;;;;;;25.92;10.25;;;3.40;64.00;;;;;;5032267;28;20036;-70
2021/01/21 00:40:17;;;;;;;19.10;9.85;;;3.40;64.00;;;;;;5053023;28;20021;-71
2021/01/21 00:42:43;;;;;;;19.00;10.20;;;3.40;63.90;;;;;;5053034;28;20436;-71
2021/01/21 00:45:09;;;;;;;27.98;9.73;;;3.40;63.90;;;;;;5051424;28;20424;-71
2021/01/21 00:47:35;;;;;;;21.60;9.15;;;3.40;63.90;;;;;;5054575;28;20359;-71
2021/01/21 00:50:01;;;;;;;22.92;9.35;;;3.40;63.90;;;;;;5052353;28;20040;-71
2021/01/21 00:52:26;;;;;;;17.75;9.32;;;3.40;64.00;;;;;;5052320;28;20596;-71
2021/01/21 00:54:52;;;;;;;21.75;7.75;;;3.40;64.00;;;;;;5052495;28;20033;-71
2021/01/21 00:57:18;;;;;;;17.92;7.80;;;3.40;63.90;;;;;;5052762;28;20025;-72
2021/01/21 00:59:44;;;;;;;38.83;8.57;;;3.40;63.80;;;;;;5050652;28;20047;-71
2021/01/21 01:02:11;;;;;;;22.00;7.03;;;3.40;63.90;;;;;;5052515;28;20033;-71
2021/01/21 01:04:37;;;;;;;32.40;7.45;;;3.40;63.90;;;;;;5051980;28;20567;-70
2021/01/21 01:07:05;;;;;;;12.70;6.20;;;3.40;63.80;;;;;;5052401;28;20064;-70
2021/01/21 01:09:30;;;;;;;20.00;6.65;;;3.40;63.70;;;;;;5052474;28;20600;-70
2021/01/21 01:11:56;;;;;;;13.52;6.43;;;3.40;63.60;;;;;;5051154;28;20115;-71
2021/01/21 01:14:22;;;;;;;15.73;7.60;;;3.40;63.60;;;;;;5051761;28;20064;-71
2021/01/21 01:16:48;;;;;;;24.38;7.88;;;3.40;63.60;;;;;;5052511;28;20390;-71
2021/01/21 01:19:13;;;;;;;11.90;6.10;;;3.40;63.40;;;;;;5034001;28;20524;-70
2021/01/21 01:21:40;;;;;;;14.07;7.07;;;3.30;63.30;;;;;;5052257;28;20048;-71
2021/01/21 01:24:06;;;;;;;11.45;6.05;;;3.30;63.40;;;;;;5052530;28;20025;-70
2021/01/21 01:26:33;;;;;;;9.32;5.03;;;3.30;63.20;;;;;;5052323;28;20021;-70
2021/01/21 01:28:58;;;;;;;19.38;6.60;;;3.30;63.30;;;;;;5052294;28;20044;-71
2021/01/21 01:31:26;;;;;;;12.30;6.50;;;3.30;63.40;;;;;;5052267;28;20021;-71
2021/01/21 01:33:52;;;;;;;12.52;6.40;;;3.30;63.50;;;;;;5052107;28;20033;-70
2021/01/21 01:36:18;;;;;;;13.60;6.88;;;3.30;63.50;;;;;;5052175;28;20108;-70
2021/01/21 01:38:43;;;;;;;11.10;6.60;;;3.30;63.40;;;;;;5052129;28;20049;-70
2021/01/21 01:41:09;;;;;;;14.20;7.80;;;3.30;63.50;;;;;;5034280;28;20037;-71
2021/01/21 01:43:35;;;;;;;14.60;7.63;;;3.30;63.70;;;;;;5052313;28;20056;-70
2021/01/21 01:46:01;;;;;;;18.55;9.30;;;3.30;63.80;;;;;;5052067;28;20056;-70
2021/01/21 01:48:27;;;;;;;23.98;11.60;;;3.30;64.00;;;;;;5034238;28;20482;-71
2021/01/21 01:50:53;;;;;;;23.67;11.85;;;3.30;64.00;;;;;;5051797;28;20091;-70
2021/01/21 01:53:19;;;;;;;22.20;11.13;;;3.40;64.30;;;;;;5034374;28;20494;-71
2021/01/21 01:55:45;;;;;;;19.98;9.00;;;3.40;64.30;;;;;;5052371;28;20506;-70
2021/01/21 01:58:14;;;;;;;18.60;8.27;;;3.40;64.30;;;;;;5052150;28;20478;-71
2021/01/21 02:00:43;;;;;;;17.67;9.25;;;3.50;64.50;;;;;;5045273;28;20025;-70
2021/01/21 02:03:09;;;;;;;17.95;9.18;;;3.50;64.50;;;;;;5033821;28;20491;-70
2021/01/21 02:05:35;;;;;;;26.55;11.40;;;3.60;64.60;;;;;;5052026;28;20136;-70
2021/01/21 02:08:01;;;;;;;44.45;15.02;;;3.60;64.80;;;;;;5052124;28;20017;-71
2021/01/21 02:10:27;;;;;;;38.00;16.45;;;3.70;64.80;;;;;;5051827;28;20483;-71
2021/01/21 02:13:01;;;;;;;41.17;18.33;;;3.70;64.80;;;;;;5052126;28;20029;-71
2021/01/21 02:15:33;;;;;;;37.13;17.90;;;3.70;64.70;;;;;;5051458;28;20421;-71
2021/01/21 02:18:15;;;;;;;70.90;18.27;;;3.70;64.70;;;;;;5032151;28;20021;-71
2021/01/21 02:21:25;;;;;;;33.45;15.30;;;3.70;64.60;;;;;;5045197;28;20521;-72
2021/01/21 02:24:10;;;;;;;23.50;11.20;;;3.70;64.50;;;;;;5028405;28;20049;-71
2021/01/21 02:26:44;;;;;;;25.85;12.65;;;3.70;64.40;;;;;;5053544;28;20078;-71
2021/01/21 02:29:21;;;;;;;23.33;10.90;;;3.70;64.30;;;;;;5015537;28;20104;-72
2021/01/21 02:32:08;;;;;;;29.30;12.27;;;3.70;64.00;;;;;;5055762;28;20028;-71
2021/01/21 02:34:40;;;;;;;25.88;12.00;;;3.70;63.60;;;;;;5048118;28;20040;-71
2021/01/21 02:37:14;;;;;;;34.65;14.45;;;3.70;63.60;;;;;;5055621;28;20490;-71
2021/01/21 02:39:47;;;;;;;37.00;14.20;;;3.70;63.70;;;;;;5055470;28;20116;-72
2021/01/21 02:42:12;;;;;;;27.60;12.18;;;3.70;63.80;;;;;;5055343;28;20029;-72
2021/01/21 02:44:38;;;;;;;38.40;12.93;;;3.70;64.00;;;;;;5055051;28;20051;-71
2021/01/21 02:47:04;;;;;;;35.30;14.10;;;3.70;64.00;;;;;;5037502;28;20029;-72
2021/01/21 02:49:30;;;;;;;33.00;16.20;;;3.70;63.90;;;;;;5053732;28;20034;-71
2021/01/21 02:52:14;;;;;;;57.97;16.92;;;3.70;63.90;;;;;;5049754;28;20064;-71
2021/01/21 02:55:22;;;;;;;26.45;14.02;;;3.70;64.00;;;;;;5035603;28;20025;-71
2021/01/21 02:58:03;;;;;;;25.38;12.48;;;3.70;64.10;;;;;;5035884;28;20120;-72
2021/01/21 03:00:32;;;;;;;39.65;16.13;;;3.70;64.10;;;;;;5050957;28;20057;-71
2021/01/21 03:03:00;;;;;;;58.83;20.75;;;3.70;64.30;;;;;;5043668;28;20044;-71
2021/01/21 03:05:28;;;;;;;51.80;20.92;;;3.80;64.60;;;;;;5046391;28;20029;-71
2021/01/21 03:07:55;;;;;;;45.70;18.58;;;3.80;64.60;;;;;;5050080;28;20120;-71
2021/01/21 03:10:22;;;;;;;46.65;18.92;;;3.80;64.60;;;;;;5037206;28;20018;-71
2021/01/21 03:12:54;;;;;;;43.22;16.48;;;3.80;64.70;;;;;;5046399;28;20104;-70
2021/01/21 03:15:21;;;;;;;45.60;16.25;;;3.80;64.60;;;;;;5043123;28;20045;-71
2021/01/21 03:17:47;;;;;;;49.50;13.38;;;3.90;64.60;;;;;;5044764;28;20104;-71
2021/01/21 03:20:13;;;;;;;33.90;11.98;;;3.90;64.40;;;;;;5050847;28;20300;-71
2021/01/21 03:22:39;;;;;;;34.83;14.10;;;3.90;64.20;;;;;;5053250;28;20040;-71
2021/01/21 03:25:05;;;;;;;38.90;14.27;;;3.90;63.90;;;;;;5053391;28;20466;-71
2021/01/21 03:27:31;;;;;;;42.75;14.73;;;3.90;63.80;;;;;;5052765;28;20542;-71
2021/01/21 03:29:57;;;;;;;29.40;11.30;;;3.90;63.70;;;;;;5052022;28;20025;-71
2021/01/21 03:32:23;;;;;;;29.23;11.32;;;3.90;63.60;;;;;;5051829;28;20429;-71
2021/01/21 03:34:49;;;;;;;38.40;11.70;;;4.00;63.60;;;;;;5052631;28;20028;-72
2021/01/21 03:37:15;;;;;;;36.17;12.93;;;4.00;63.50;;;;;;5034760;28;20029;-71
2021/01/21 03:39:40;;;;;;;47.67;13.88;;;3.90;63.40;;;;;;5052634;28;20029;-71
2021/01/21 03:42:06;;;;;;;33.58;11.60;;;3.90;63.20;;;;;;5052791;28;20028;-71
2021/01/21 03:44:32;;;;;;;32.45;11.38;;;3.90;63.20;;;;;;5052516;28;20033;-72
2021/01/21 03:46:59;;;;;;;43.50;13.27;;;3.90;63.10;;;;;;5052198;28;20029;-71
2021/01/21 03:49:25;;;;;;;43.17;13.27;;;3.90;63.10;;;;;;5034889;28;20036;-71
2021/01/21 03:51:50;;;;;;;35.40;11.18;;;3.90;63.20;;;;;;5052733;28;20025;-71
2021/01/21 03:54:16;;;;;;;41.50;11.38;;;4.00;63.40;;;;;;5051762;28;20124;-71
2021/01/21 03:56:42;;;;;;;35.90;11.75;;;4.00;63.40;;;;;;5051572;28;20051;-71
2021/01/21 03:59:08;;;;;;;40.13;12.45;;;4.00;63.50;;;;;;5050809;28;20037;-70
2021/01/21 04:01:33;;;;;;;63.28;16.85;;;4.10;63.70;;;;;;5051809;28;20029;-71
2021/01/21 04:03:59;;;;;;;60.53;14.23;;;4.10;63.60;;;;;;5052497;28;20555;-71
2021/01/21 04:06:25;;;;;;;65.15;15.15;;;4.00;63.30;;;;;;5052348;28;20020;-71
2021/01/21 04:08:50;;;;;;;67.88;18.73;;;4.10;63.30;;;;;;5051275;28;20021;-71
2021/01/21 04:11:16;;;;;;;68.88;19.40;;;4.10;63.20;;;;;;5050622;28;20052;-71
2021/01/21 04:13:42;;;;;;;98.07;28.23;;;4.10;63.20;;;;;;5051376;28;20549;-70
2021/01/21 04:16:08;;;;;;;89.13;26.67;;;4.10;63.30;;;;;;5052140;28;20046;-71
2021/01/21 04:18:34;;;;;;;100.70;27.30;;;4.10;63.50;;;;;;5050612;28;20540;-70
2021/01/21 04:21:00;;;;;;;80.18;23.15;;;4.10;63.70;;;;;;5051863;28;20052;-70
2021/01/21 04:23:25;;;;;;;75.93;20.60;;;4.10;63.70;;;;;;5053200;28;20481;-70
2021/01/21 04:25:51;;;;;;;72.45;23.23;;;4.10;63.70;;;;;;5035378;28;20032;-71
2021/01/21 04:28:17;;;;;;;97.35;27.00;;;4.20;63.70;;;;;;5053460;28;20024;-70
2021/01/21 04:30:43;;;;;;;126.13;36.17;;;4.20;63.70;;;;;;5052972;28;20029;-71
2021/01/21 04:33:09;;;;;;;114.20;35.55;;;4.20;63.80;;;;;;5053331;28;20032;-71
2021/01/21 04:35:34;;;;;;;94.53;32.22;;;4.20;63.90;;;;;;5053209;28;20382;-70
2021/01/21 04:38:00;;;;;;;105.85;31.80;;;4.20;64.00;;;;;;5052923;28;20040;-70
2021/01/21 04:40:29;;;;;;;110.18;29.10;;;4.30;64.20;;;;;;5053269;28;20036;-71
2021/01/21 04:42:55;;;;;;;84.72;24.38;;;4.30;64.30;;;;;;5052437;28;20052;-71
2021/01/21 04:45:21;;;;;;;81.00;21.35;;;4.40;64.30;;;;;;5052384;28;20028;-70
2021/01/21 04:47:47;;;;;;;77.40;21.40;;;4.30;64.20;;;;;;5052955;28;20029;-71
2021/01/21 04:50:14;;;;;;;77.43;22.00;;;4.40;64.20;;;;;;5052875;28;20115;-71
2021/01/21 04:52:43;;;;;;;104.68;26.60;;;4.40;64.20;;;;;;5053350;28;20037;-71
2021/01/21 04:55:16;;;;;;;82.82;26.00;;;4.50;64.20;;;;;;5053358;28;20508;-71
2021/01/21 04:57:48;;;;;;;122.13;40.97;;;4.50;64.20;;;;;;5052051;28;20474;-70
2021/01/21 05:00:16;;;;;;;95.63;36.83;;;4.50;64.00;;;;;;5053646;28;20036;-70
2021/01/21 05:02:44;;;;;;;95.18;27.20;;;4.50;64.00;;;;;;5053768;28;20383;-71
2021/01/21 05:05:10;;;;;;;84.50;28.92;;;4.60;64.00;;;;;;5053085;28;20020;-71
2021/01/21 05:07:40;;;;;;;81.25;25.05;;;4.50;63.70;;;;;;5053293;28;20021;-71
2021/01/21 05:10:07;;;;;;;88.70;26.77;;;4.50;63.50;;;;;;5053536;28;20036;-72
2021/01/21 05:12:33;;;;;;;86.63;25.67;;;4.50;63.40;;;;;;5053576;28;20036;-70
2021/01/21 05:14:59;;;;;;;105.10;28.63;;;4.50;63.40;;;;;;5053490;28;20025;-70
2021/01/21 05:17:25;;;;;;;108.22;32.70;;;4.50;63.20;;;;;;5035322;28;20024;-70
2021/01/21 05:19:54;;;;;;;91.65;28.63;;;4.50;63.20;;;;;;5043609;28;20053;-71
2021/01/21 05:22:20;;;;;;;130.25;33.10;;;4.40;63.30;;;;;;5031575;28;20040;-69
2021/01/21 05:24:47;;;;;;;102.20;29.02;;;4.50;63.40;;;;;;5032246;28;20029;-70
2021/01/21 05:27:17;;;;;;;107.00;27.02;;;4.50;63.50;;;;;;5033084;28;20486;-70
2021/01/21 05:29:47;;;;;;;88.95;26.77;;;4.40;63.50;;;;;;5033116;28;20091;-71
2021/01/21 05:32:15;;;;;;;90.85;26.40;;;4.50;63.50;;;;;;5015562;28;20095;-71
2021/01/21 05:34:43;;;;;;;100.70;30.35;;;4.50;63.60;;;;;;5031167;28;20112;-72
2021/01/21 05:37:11;;;;;;;105.40;29.30;;;4.40;63.50;;;;;;5033232;28;20029;-71
2021/01/21 05:39:41;;;;;;;79.35;26.67;;;4.40;63.50;;;;;;5033116;28;20029;-71
2021/01/21 05:42:07;;;;;;;73.18;24.23;;;4.40;63.50;;;;;;5033323;28;20025;-71
2021/01/21 05:44:35;;;;;;;96.28;30.70;;;4.40;63.60;;;;;;5033063;28;20474;-70
2021/01/21 05:47:02;;;;;;;100.18;34.83;;;4.40;63.60;;;;;;5033283;28;20029;-70
2021/01/21 05:49:28;;;;;;;103.50;36.40;;;4.40;63.60;;;;;;5015236;28;20025;-70
2021/01/21 05:51:56;;;;;;;106.20;40.40;;;4.40;63.60;;;;;;5032966;28;20025;-70
2021/01/21 05:54:25;;;;;;;103.20;39.13;;;4.40;63.50;;;;;;5032354;28;20025;-70
2021/01/21 05:56:56;;;;;;;120.35;41.92;;;4.40;63.40;;;;;;5033442;28;20025;-70
2021/01/21 05:59:26;;;;;;;119.40;42.67;;;4.40;63.50;;;;;;5032506;28;20159;-71
2021/01/21 06:01:54;;;;;;;118.50;40.45;;;4.40;63.60;;;;;;5035524;28;20032;-70
2021/01/21 06:04:26;;;;;;;93.97;36.30;;;4.40;63.80;;;;;;5035530;28;20033;-70
2021/01/21 06:06:54;;;;;;;132.63;42.80;;;4.40;63.90;;;;;;5037591;28;20021;-71
2021/01/21 06:09:26;;;;;;;112.72;41.75;;;4.40;64.00;;;;;;5036769;28;20537;-70
2021/01/21 06:11:52;;;;;;;98.82;37.08;;;4.30;63.90;;;;;;5035519;28;20123;-70
2021/01/21 06:14:23;;;;;;;98.15;35.22;;;4.30;63.70;;;;;;5036638;28;20025;-70
2021/01/21 06:16:50;;;;;;;113.63;40.30;;;4.30;63.80;;;;;;5036921;28;20025;-71
2021/01/21 06:19:16;;;;;;;108.93;40.65;;;4.30;63.80;;;;;;5037555;28;20144;-71
2021/01/21 06:21:47;;;;;;;103.95;39.15;;;4.30;63.70;;;;;;5036583;28;20136;-71
2021/01/21 06:24:15;;;;;;;120.78;41.25;;;4.30;63.80;;;;;;5036345;28;20431;-71
2021/01/21 06:26:44;;;;;;;111.03;39.85;;;4.30;63.90;;;;;;5036445;28;20415;-72
2021/01/21 06:29:14;;;;;;;105.38;40.28;;;4.20;63.90;;;;;;5026018;28;20045;-71
2021/01/21 06:31:41;;;;;;;95.38;35.90;;;4.20;63.90;;;;;;5036790;28;20024;-71
2021/01/21 06:34:15;;;;;;;98.10;36.50;;;4.20;63.80;;;;;;5036395;28;20026;-71
2021/01/21 06:36:43;;;;;;;106.68;41.00;;;4.20;63.70;;;;;;5036319;28;20363;-71
2021/01/21 06:39:14;;;;;;;108.50;38.83;;;4.20;63.60;;;;;;5035799;28;20037;-71
2021/01/21 06:41:44;;;;;;;80.45;32.60;;;4.20;63.60;;;;;;5036555;28;20547;-71
2021/01/21 06:44:15;;;;;;;93.55;32.90;;;4.20;63.70;;;;;;5035685;28;20482;-71
2021/01/21 06:46:43;;;;;;;112.20;37.38;;;4.20;63.60;;;;;;5036400;28;20096;-71
2021/01/21 06:49:11;;;;;;;107.72;36.95;;;4.20;63.60;;;;;;5035822;28;20105;-71
2021/01/21 06:51:37;;;;;;;95.05;33.70;;;4.20;63.40;;;;;;5035813;28;20021;-72
2021/01/21 06:54:04;;;;;;;94.88;35.25;;;4.20;63.30;;;;;;5035708;28;20064;-71
2021/01/21 06:56:32;;;;;;;92.57;34.30;;;4.20;63.30;;;;;;5018426;28;20029;-71
2021/01/21 06:58:58;;;;;;;92.70;31.50;;;4.20;63.20;;;;;;5017684;28;20029;-71
2021/01/21 07:01:33;;;;;;;87.78;30.83;;;4.20;63.30;;;;;;5036142;28;20032;-71
2021/01/21 07:04:04;;;;;;;80.30;29.55;;;4.20;63.30;;;;;;5035764;28;20029;-71
2021/01/21 07:06:52;;;;;;;69.13;26.33;;;4.20;63.30;;;;;;5035851;28;20105;-71
2021/01/21 07:09:20;;;;;;;73.93;25.92;;;4.20;63.20;;;;;;5035717;28;20374;-71
2021/01/21 07:11:47;;;;;;;69.35;24.90;;;4.20;63.20;;;;;;5035559;28;20449;-71
2021/01/21 07:14:17;;;;;;;95.60;31.00;;;4.30;63.20;;;;;;5035259;28;20052;-71
2021/01/21 07:16:48;;;;;;;95.13;31.80;;;4.30;63.10;;;;;;5035831;28;20037;-71
2021/01/21 07:19:14;;;;;;;105.20;34.15;;;4.30;63.00;;;;;;5039769;28;20036;-71
2021/01/21 07:21:51;;;;;;;81.88;28.02;;;4.30;62.80;;;;;;5055881;28;20074;-72
2021/01/21 07:24:21;;;;;;;109.15;37.65;;;4.30;62.70;;;;;;5053294;28;20025;-72
2021/01/21 07:26:52;;;;;;;96.07;33.38;;;4.30;62.70;;;;;;5018440;28;20378;-71
2021/01/21 07:29:20;;;;;;;94.63;33.53;;;4.30;62.80;;;;;;5035543;28;20163;-71
2021/01/21 07:32:04;;;;;;;118.40;36.03;;;4.40;62.80;;;;;;5034857;28;20028;-72
2021/01/21 07:34:50;;;;;;;104.50;33.93;;;4.40;62.60;;;;;;5019582;28;20032;-71
2021/01/21 07:37:23;;;;;;;112.15;35.25;;;4.40;62.60;;;;;;5036005;28;20482;-71
2021/01/21 07:39:55;;;;;;;97.20;33.77;;;4.40;62.40;;;;;;5035077;28;20030;-72
2021/01/21 07:42:22;;;;;;;113.32;33.05;;;4.40;62.20;;;;;;5034981;28;20036;-71
2021/01/21 07:44:50;;;;;;;110.70;35.28;;;4.40;62.10;;;;;;5034830;28;20107;-72
2021/01/21 07:47:30;;;;;;;83.20;30.05;;;4.40;62.20;;;;;;5035018;28;20021;-71
2021/01/21 07:50:14;;;;;;;93.13;30.45;;;4.40;62.20;;;;;;5039334;28;20032;-72
2021/01/21 07:52:48;;;;;;;106.68;34.65;;;4.40;62.20;;;;;;5035063;28;20087;-72
2021/01/21 07:55:14;;;;;;;94.07;30.83;;;4.40;62.00;;;;;;5032839;28;20112;-72
2021/01/21 07:57:40;;;;;;;99.90;31.27;;;4.40;62.00;;;;;;5034385;28;20030;-71
2021/01/21 08:00:11;;;;;;;100.13;33.28;;;4.50;62.00;;;;;;5034443;28;20021;-72
2021/01/21 08:02:44;;;;;;;95.22;33.40;;;4.50;62.10;;;;;;5041651;28;20018;-73
2021/01/21 08:05:10;;;;;;;83.70;29.08;;;4.50;61.90;;;;;;5034352;28;20034;-72
2021/01/21 08:07:51;;;;;;;94.93;32.58;;;4.50;62.10;;;;;;5016977;28;20490;-71
2021/01/21 08:10:21;;;;;;;94.97;31.95;;;4.50;62.30;;;;;;5024935;28;20111;-72
2021/01/21 08:12:59;;;;;;;110.38;33.92;;;4.60;62.20;;;;;;5034554;28;20036;-71
2021/01/21 08:15:26;;;;;;;105.88;35.28;;;4.60;61.90;;;;;;5034463;28;20065;-72
2021/01/21 08:17:53;;;;;;;110.28;35.17;;;4.60;61.80;;;;;;5032829;28;20467;-71
2021/01/21 08:20:21;;;;;;;101.60;34.15;;;4.60;61.60;;;;;;5043296;28;20053;-72
2021/01/21 08:23:08;;;;;;;114.03;36.85;;;4.60;61.50;;;;;;5037380;28;20029;-71
2021/01/21 08:25:50;;;;;;;97.95;33.67;;;4.60;61.40;;;;;;5045091;28;20030;-71
2021/01/21 08:28:21;;;;;;;87.25;31.08;;;4.70;61.70;;;;;;5043001;28;20030;-72
2021/01/21 08:30:49;;;;;;;103.40;34.85;;;4.70;61.70;;;;;;5040038;28;20029;-72
2021/01/21 08:33:31;;;;;;;111.95;37.65;;;4.70;61.70;;;;;;5038892;28;20056;-72
2021/01/21 08:36:05;;;;;;;125.20;38.22;;;4.80;61.70;;;;;;5053960;28;20025;-72
2021/01/21 08:38:39;;;;;;;120.20;38.30;;;4.80;61.50;;;;;;5030645;28;20029;-71
2021/01/21 08:41:06;;;;;;;114.85;35.80;;;4.80;61.60;;;;;;5042834;28;20075;-72
2021/01/21 08:43:37;;;;;;;109.43;35.17;;;4.90;61.70;;;;;;5045727;28;20032;-72
2021/01/21 08:46:17;;;;;;;105.18;33.55;;;4.90;61.40;;;;;;5033326;28;20037;-71
2021/01/21 08:48:44;;;;;;;99.75;34.28;;;4.90;61.10;;;;;;5015788;28;20072;-72
2021/01/21 08:51:41;;;;;;;110.22;35.00;;;4.90;60.90;;;;;;5050825;28;20479;-71
2021/01/21 08:54:23;;;;;;;97.38;30.35;;;4.90;60.80;;;;;;5035576;28;20121;-71
2021/01/21 08:57:09;;;;;;;99.90;34.33;;;5.00;61.30;;;;;;5029950;28;20033;-72
2021/01/21 08:59:35;;;;;;;110.10;34.80;;;5.00;61.30;;;;;;5047718;28;20030;-72
2021/01/21 09:02:04;;;;;;;103.20;34.80;;;5.10;61.30;;;;;;5050459;28;20429;-72
2021/01/21 09:04:37;;;;;;;118.50;37.85;;;5.10;61.30;;;;;;5041931;28;20026;-71
2021/01/21 09:07:05;;;;;;;117.22;37.03;;;5.20;61.40;;;;;;5051668;28;20033;-72
2021/01/21 09:09:33;;;;;;;106.18;38.42;;;5.20;61.40;;;;;;5053386;28;20021;-73
2021/01/21 09:12:26;;;;;;;113.53;41.58;;;5.30;61.40;;;;;;5035515;28;20021;-72
2021/01/21 09:15:08;;;;;;;128.07;41.80;;;5.40;61.40;;;;;;5047857;28;20036;-72
2021/01/21 09:17:35;;;;;;;127.38;41.15;;;5.40;61.20;;;;;;5028595;28;20029;-71
2021/01/21 09:20:18;;;;;;;120.88;39.88;;;5.50;60.90;;;;;;5058287;28;20053;-73
2021/01/21 09:22:44;;;;;;;119.75;37.53;;;5.50;60.80;;;;;;5052017;28;20036;-71
2021/01/21 09:25:10;;;;;;;101.95;39.15;;;5.60;60.90;;;;;;5050282;28;20036;-73
2021/01/21 09:27:38;;;;;;;122.00;40.60;;;5.60;60.70;;;;;;5053631;28;20049;-72
2021/01/21 09:30:07;;;;;;;126.82;41.17;;;5.70;60.70;;;;;;5047366;28;20021;-72
2021/01/21 09:32:37;;;;;;;132.05;44.75;;;5.70;60.70;;;;;;5044223;28;20025;-71
2021/01/21 09:35:16;;;;;;;151.27;48.28;;;5.80;60.50;;;;;;5051654;28;20065;-71
2021/01/21 09:37:44;;;;;;;143.18;47.90;;;5.80;60.40;;;;;;5035289;28;20115;-72
2021/01/21 09:40:19;;;;;;;147.48;51.33;;;5.90;60.40;;;;;;5035365;28;20029;-72
2021/01/21 09:42:46;;;;;;;150.98;53.30;;;6.00;60.50;;;;;;5053119;28;20075;-71
2021/01/21 09:45:12;;;;;;;144.55;53.00;;;6.00;60.40;;;;;;5052399;28;20025;-72
2021/01/21 09:47:39;;;;;;;169.05;59.08;;;6.10;60.20;;;;;;5048596;28;20037;-72
2021/01/21 09:50:07;;;;;;;143.23;53.75;;;6.20;59.80;;;;;;5025924;28;20075;-72
2021/01/21 09:52:34;;;;;;;158.23;59.45;;;6.20;59.60;;;;;;5051050;28;20029;-72
2021/01/21 09:55:00;;;;;;;175.40;65.72;;;6.20;59.50;;;;;;5051192;28;20421;-71
2021/01/21 09:57:27;;;;;;;169.30;66.07;;;6.30;59.40;;;;;;5052998;28;20496;-71
2021/01/21 09:59:53;;;;;;;161.77;62.72;;;6.30;59.30;;;;;;5046174;28;20585;-72
2021/01/21 10:02:18;;;;;;;174.45;60.42;;;6.30;59.10;;;;;;5031086;28;20040;-72
2021/01/21 10:04:44;;;;;;;162.80;63.08;;;6.40;59.30;;;;;;5052103;28;20036;-72
2021/01/21 10:07:10;;;;;;;165.23;63.47;;;6.40;59.30;;;;;;5039364;28;20052;-72
2021/01/21 10:09:37;;;;;;;174.82;63.05;;;6.40;59.00;;;;;;5047757;28;20108;-72
2021/01/21 10:12:03;;;;;;;154.00;54.33;;;6.30;58.80;;;;;;5040141;28;20017;-72
2021/01/21 10:14:29;;;;;;;151.40;54.47;;;6.30;58.90;;;;;;5035663;28;20037;-72
2021/01/21 10:16:56;;;;;;;157.98;58.40;;;6.40;59.20;;;;;;5035019;28;20017;-72
2021/01/21 10:19:22;;;;;;;144.38;54.15;;;6.30;59.20;;;;;;5043441;28;20393;-72
2021/01/21 10:21:48;;;;;;;168.10;60.22;;;6.40;59.30;;;;;;5039793;28;20044;-71
2021/01/21 10:24:14;;;;;;;164.45;62.72;;;6.50;59.50;;;;;;5050544;28;20025;-73
2021/01/21 10:26:40;;;;;;;152.80;57.15;;;6.50;59.20;;;;;;5046340;28;20104;-71
2021/01/21 10:29:07;;;;;;;139.70;51.08;;;6.50;59.00;;;;;;5032172;28;20470;-72
2021/01/21 10:31:33;;;;;;;164.45;65.13;;;6.50;59.00;;;;;;5035390;28;20018;-72
2021/01/21 10:33:59;;;;;;;163.35;62.97;;;6.50;59.10;;;;;;5026458;28;20033;-72
2021/01/21 10:36:25;;;;;;;184.50;66.03;;;6.50;58.90;;;;;;5034384;28;20108;-71
2021/01/21 10:38:51;;;;;;;164.30;61.47;;;6.50;58.40;;;;;;5037949;28;20025;-72
2021/01/21 10:41:17;;;;;;;140.48;55.55;;;6.50;58.50;;;;;;5041864;28;20029;-71
2021/01/21 10:43:42;;;;;;;163.05;62.13;;;6.50;58.80;;;;;;5039505;28;20051;-72
2021/01/21 10:46:09;;;;;;;143.00;57.10;;;6.50;58.90;;;;;;5043413;28;20051;-72
2021/01/21 10:48:34;;;;;;;178.50;64.38;;;6.50;58.90;;;;;;5049942;28;20488;-72
2021/01/21 10:51:00;;;;;;;196.55;73.65;;;6.60;58.90;;;;;;5045712;28;20045;-72
2021/01/21 10:53:27;;;;;;;220.73;77.93;;;6.60;58.80;;;;;;5041263;28;20104;-72
2021/01/21 10:55:53;;;;;;;186.32;69.88;;;6.60;58.60;;;;;;5034712;28;20026;-71
2021/01/21 10:58:18;;;;;;;202.15;75.10;;;6.70;58.60;;;;;;5040409;28;20044;-71
2021/01/21 11:00:45;;;;;;;206.45;80.03;;;6.70;58.50;;;;;;5040383;28;20056;-71
2021/01/21 11:03:12;;;;;;;189.95;68.95;;;6.70;58.30;;;;;;5044533;28;20090;-71
2021/01/21 11:05:40;;;;;;;204.13;69.57;;;6.70;58.20;;;;;;5037305;28;20446;-71
2021/01/21 11:08:10;;;;;;;146.68;60.25;;;6.70;58.40;;;;;;5034832;28;20025;-71
2021/01/21 11:10:37;;;;;;;180.52;65.43;;;6.80;58.70;;;;;;5048458;28;20021;-71
2021/01/21 11:13:03;;;;;;;153.65;58.72;;;6.90;58.70;;;;;;5043186;28;20116;-71
2021/01/21 11:15:30;;;;;;;157.38;60.35;;;7.00;58.80;;;;;;5039851;28;20075;-71
2021/01/21 11:17:56;;;;;;;186.07;68.72;;;7.10;58.90;;;;;;5033531;28;20096;-71
2021/01/21 11:20:23;;;;;;;210.20;77.05;;;7.20;58.90;;;;;;5031777;28;20046;-71
2021/01/21 11:22:55;;;;;;;206.40;77.07;;;7.20;58.60;;;;;;5043338;28;20021;-72
2021/01/21 11:25:23;;;;;;;203.02;78.50;;;7.40;58.60;;;;;;5045601;28;20368;-71
2021/01/21 11:27:48;;;;;;;195.13;70.80;;;7.50;58.30;;;;;;5030435;28;20447;-71
2021/01/21 11:30:15;;;;;;;178.95;71.85;;;7.60;58.20;;;;;;5038310;28;20037;-71
2021/01/21 11:32:41;;;;;;;196.63;72.72;;;7.60;58.10;;;;;;5050720;28;20051;-71
2021/01/21 11:35:09;;;;;;;184.25;66.75;;;7.70;57.90;;;;;;5035304;28;20021;-71
2021/01/21 11:37:36;;;;;;;177.95;67.90;;;7.80;57.90;;;;;;5036775;28;20063;-72
2021/01/21 11:40:03;;;;;;;188.93;72.70;;;7.80;57.40;;;;;;5046131;28;20025;-71
2021/01/21 11:42:29;;;;;;;183.30;68.05;;;7.80;56.80;;;;;;5037640;28;20028;-71
2021/01/21 11:44:55;;;;;;;252.77;101.30;;;7.80;56.60;;;;;;5054881;28;20032;-72
2021/01/21 11:47:21;;;;;;;254.95;99.93;;;7.80;56.40;;;;;;5054600;28;20100;-71
2021/01/21 11:49:47;;;;;;;216.60;79.45;;;7.70;56.50;;;;;;5044763;28;20021;-72
2021/01/21 11:52:13;;;;;;;190.70;73.10;;;7.60;56.60;;;;;;5029471;28;20059;-72
2021/01/21 11:54:38;;;;;;;181.18;71.97;;;7.60;56.70;;;;;;5053174;28;20025;-72
2021/01/21 11:57:04;;;;;;;168.07;64.38;;;7.50;56.60;;;;;;5043040;28;20555;-72
2021/01/21 11:59:30;;;;;;;156.30;63.35;;;7.50;56.80;;;;;;5042631;28;20033;-72
2021/01/21 12:01:56;;;;;;;142.70;58.10;;;7.50;57.00;;;;;;5025216;28;20060;-71
2021/01/21 12:04:21;;;;;;;135.63;57.38;;;7.50;57.00;;;;;;5050391;28;20067;-71
2021/01/21 12:06:50;;;;;;;167.52;65.97;;;7.50;57.00;;;;;;5036291;28;20494;-71
2021/01/21 12:09:17;;;;;;;145.20;61.63;;;7.60;56.60;;;;;;5047029;28;20079;-72
2021/01/21 12:11:42;;;;;;;147.85;61.88;;;7.60;56.70;;;;;;5045650;28;20425;-71
2021/01/21 12:14:08;;;;;;;142.93;57.25;;;7.70;56.90;;;;;;5050495;28;20064;-71
2021/01/21 12:16:34;;;;;;;141.73;60.00;;;7.70;56.80;;;;;;5053091;28;20032;-71
2021/01/21 12:19:00;;;;;;;129.90;56.97;;;7.80;56.70;;;;;;5053096;28;20029;-73
2021/01/21 12:21:27;;;;;;;114.25;50.75;;;7.80;56.60;;;;;;5040174;28;20079;-71
2021/01/21 12:23:53;;;;;;;99.38;46.58;;;7.90;56.40;;;;;;5034752;28;20056;-71
2021/01/21 12:26:18;;;;;;;108.32;48.20;;;7.90;56.30;;;;;;5039789;28;20041;-72
2021/01/21 12:28:44;;;;;;;109.40;47.35;;;8.00;56.40;;;;;;5059066;28;20127;-71
2021/01/21 12:31:10;;;;;;;96.00;44.95;;;8.00;56.20;;;;;;5053599;28;20027;-72
2021/01/21 12:33:36;;;;;;;102.90;46.25;;;8.00;56.10;;;;;;5058489;28;20059;-72
2021/01/21 12:36:02;;;;;;;102.30;46.47;;;8.10;55.90;;;;;;5073454;28;20511;-71
2021/01/21 12:38:28;;;;;;;96.15;44.88;;;8.10;55.70;;;;;;5070200;28;21699;-72
2021/01/21 12:40:54;;;;;;;97.05;45.35;;;8.10;55.80;;;;;;5053257;28;20067;-71